Free Soil, MI (49411)

4:42 AM EST on February 12, 2016 (GMT -0500)
MesoWest | | Change Station
CLOSE
Current Station
Personal Weather Station
Location: Filer City, MI
Elevation: 659 ft
Nearby Weather Stations
Active Advisory: Winter Weather Advisory Active Notice: Local Storm Report

Elev 659 ft 44.22 °N, 86.31 °W | Updated 47 minutes ago

Overcast
Overcast
20 °F
Feels Like 9 °F
N
10
Wind Variable Wind from WNW
Gusts 19.0 mph

Today
High -- | Low -- °F
--% Chance of Precip.
Yesterday
High -- | Low -- °F
Precip. -- in
Pressure 30.03 in
Visibility 10.0 miles
Clouds Mostly Cloudy 3200 ft
Overcast 6000 ft
Windchill 9 °F
Dew Point 7 °F
Humidity 56%
Rainfall in
Snow Depth Not available.
7:49 AM 6:09 PM
Waxing Crescent, 19% visible
METAR KMBL 120935Z AUTO 29017G21KT 10SM BKN032 OVC060 M07/M14 A3003 RMK AO1
Pressure 30.03 in
Visibility 10.0 miles
Clouds Mostly Cloudy 3200 ft
Overcast 6000 ft
Windchill 9 °F
Dew Point 7 °F
Humidity 56%
Rainfall in
Snow Depth Not available.
7:49 AM 6:09 PM
Waxing Crescent, 19% visible
METAR KMBL 120935Z AUTO 29017G21KT 10SM BKN032 OVC060 M07/M14 A3003 RMK AO1

10-Day Weather Forecast

Almanac

Astronomy

Feb. 12, 2016 Rise Set
Actual Time
Civil Twilight
Nautical Twilight
Astronomical Twilight
Moon
Length of Visible Light
Length of Day
Tomorrow will be .
, % of the Moon is Illuminated

Today's Extremes

State Highs State Lows

Community

WunderPhotos

Upload Photos

1,892,286 photos uploaded!

WunderBlog® & News

Nearby

Air Quality

  Air Quality AQ Index Pollutant
Not available.

Snow Depth

Station Depth Elevation

Earthquake Activity

City Distance Mag. Time & Date
Minimum magnitude displayed is 2.5.

Coastal Water Temperatures

Place Temperature

Stations

Nearby Weather Stations

Station Location Temp. Windchill Dew Point Humidity Wind Precip. Elev Updated Type
                   

Watches & Warnings

Winter Weather Advisory
Issued: 3:41 AM EST Feb. 12, 2016 – National Weather Service

... Winter Weather Advisory remains in effect from 7 am this
morning to 4 PM EST Saturday...

Hazardous weather...

* snow will begin between 7 am and 9 am. There may be a lull late
   morning before heavier lake effect snow develops this
   afternoon.

* Blowing snow will reduce visibilities to a few car lengths
   this afternoon and evening.

* Total snow 4 to 6 inches... locally higher amounts possible.


Impacts...

* hazardous travel from mid morning Friday through Saturday
   evening.

* Accidents and slideoffs due to slippery roads and low
   visibilities.

* Closures and cancellations.

Precautionary/preparedness actions...

* the Michigan Department of Transportation reminds motorists
   to adjust speeds based on the conditions... and to take it
   slow in ice and snow.